createdAt,value
2022-12-25T05:16:25.195Z,8.34
2022-12-25T05:18:52.478Z,8.36
2022-12-25T05:21:19.054Z,8.35
2022-12-25T05:23:48.759Z,8.33
2022-12-25T05:26:17.202Z,8.32
2022-12-25T05:28:43.794Z,8.34
2022-12-25T05:31:10.384Z,8.28
2022-12-25T05:33:37.268Z,8.32
2022-12-25T05:36:12.454Z,8.30
2022-12-25T05:38:39.199Z,8.35
2022-12-25T05:41:06.114Z,8.32
2022-12-25T05:43:32.850Z,8.31
2022-12-25T05:46:05.143Z,8.31
2022-12-25T05:48:35.052Z,8.31
2022-12-25T05:51:07.327Z,8.30
2022-12-25T05:53:34.664Z,8.28
2022-12-25T05:56:03.795Z,8.31
2022-12-25T05:58:31.513Z,8.32
2022-12-25T06:00:58.783Z,8.35
2022-12-25T06:03:25.912Z,8.38
2022-12-25T06:05:52.934Z,8.42
2022-12-25T06:08:21.406Z,8.35
2022-12-25T06:10:48.293Z,8.37
2022-12-25T06:13:15.186Z,8.37
2022-12-25T06:15:42.070Z,8.34
2022-12-25T06:18:09.168Z,8.37
2022-12-25T06:20:35.985Z,8.36
2022-12-25T06:23:02.939Z,8.34
2022-12-25T06:25:29.550Z,8.37
2022-12-25T06:27:59.972Z,8.32
2022-12-25T06:30:27.341Z,8.32
2022-12-25T06:32:56.972Z,8.33
2022-12-25T06:35:30.756Z,8.34
2022-12-25T06:37:57.449Z,8.34
2022-12-25T06:40:24.055Z,8.33
2022-12-25T06:42:51.806Z,8.26
2022-12-25T06:45:18.421Z,7.97
2022-12-25T06:47:45.005Z,8.01
2022-12-25T06:50:11.627Z,8.14
2022-12-25T06:52:38.214Z,7.97
2022-12-25T06:55:04.996Z,8.15
2022-12-25T06:57:32.313Z,8.19
2022-12-25T06:59:58.827Z,8.23
2022-12-25T07:02:25.979Z,8.22
2022-12-25T07:04:53.623Z,8.20
2022-12-25T07:07:23.899Z,8.20
2022-12-25T07:09:50.617Z,8.13
2022-12-25T07:12:25.826Z,8.14
2022-12-25T07:14:55.164Z,8.08
2022-12-25T07:17:22.900Z,8.15
2022-12-25T07:19:50.185Z,8.05
2022-12-25T07:22:19.615Z,7.99
2022-12-25T07:24:46.293Z,8.00
2022-12-25T07:27:13.225Z,8.08
2022-12-25T07:29:39.727Z,8.00
2022-12-25T07:32:06.349Z,8.13
2022-12-25T07:34:32.968Z,7.92
2022-12-25T07:36:59.536Z,7.90
2022-12-25T07:39:26.099Z,7.99
2022-12-25T07:41:52.707Z,8.08
2022-12-25T07:44:19.343Z,7.93
2022-12-25T07:46:46.054Z,8.12
2022-12-25T07:49:12.869Z,7.98
2022-12-25T07:51:39.645Z,8.03
2022-12-25T07:54:06.310Z,8.17
2022-12-25T07:56:33.377Z,8.21
2022-12-25T07:59:01.227Z,8.30
2022-12-25T08:01:33.059Z,8.24
2022-12-25T08:04:02.209Z,8.34
2022-12-25T08:06:34.938Z,8.42
2022-12-25T08:09:12.010Z,8.11
2022-12-25T08:11:46.274Z,8.06
2022-12-25T08:14:16.778Z,8.31
2022-12-25T08:16:43.876Z,8.22
2022-12-25T08:19:11.411Z,8.36
2022-12-25T08:21:39.127Z,8.44
2022-12-25T08:24:08.305Z,8.55
2022-12-25T08:26:35.257Z,8.61
2022-12-25T08:29:02.341Z,8.63
2022-12-25T08:31:30.838Z,8.47
2022-12-25T08:33:58.868Z,8.60
2022-12-25T08:36:26.515Z,8.67
2022-12-25T08:39:02.440Z,8.66
2022-12-25T08:41:29.866Z,8.68
2022-12-25T08:43:56.646Z,8.69
2022-12-25T08:46:23.603Z,8.71
2022-12-25T08:48:50.589Z,8.69
2022-12-25T08:51:19.832Z,8.70
2022-12-25T08:53:47.743Z,8.68
2022-12-25T08:56:15.497Z,8.52
2022-12-25T08:58:43.079Z,8.61
2022-12-25T09:01:11.096Z,8.58
2022-12-25T09:03:38.095Z,8.66
2022-12-25T09:06:07.739Z,8.54
2022-12-25T09:08:35.479Z,8.52
2022-12-25T09:11:04.182Z,8.42
2022-12-25T09:13:31.036Z,8.54
2022-12-25T09:15:57.601Z,8.65
2022-12-25T09:18:24.532Z,8.67
2022-12-25T09:21:05.780Z,8.65
2022-12-25T09:23:33.440Z,8.59
2022-12-25T09:26:01.472Z,8.72
2022-12-25T09:28:28.493Z,8.77
2022-12-25T09:30:55.514Z,8.81
2022-12-25T09:33:22.238Z,8.82
2022-12-25T09:36:07.294Z,8.75
2022-12-25T09:38:34.890Z,8.70
2022-12-25T09:41:21.668Z,8.71
2022-12-25T09:43:52.881Z,8.73
2022-12-25T09:46:23.420Z,8.84
2022-12-25T09:49:06.256Z,8.93
2022-12-25T09:51:37.547Z,8.98
2022-12-25T09:54:14.316Z,9.02
2022-12-25T09:56:40.898Z,9.06
2022-12-25T09:59:18.597Z,9.05
2022-12-25T10:02:01.377Z,9.11
2022-12-25T10:04:47.368Z,9.23
2022-12-25T10:07:36.041Z,9.36
2022-12-25T10:10:40.893Z,9.41
2022-12-25T10:13:26.956Z,9.58
2022-12-25T10:16:32.501Z,9.57
2022-12-25T10:19:19.739Z,9.52
2022-12-25T10:21:47.738Z,9.79
2022-12-25T10:24:30.426Z,9.89
2022-12-25T10:26:57.266Z,10.02
2022-12-25T10:29:24.081Z,10.17
2022-12-25T10:31:54.609Z,10.13
2022-12-25T10:34:22.359Z,9.89
2022-12-25T10:36:50.081Z,9.92
2022-12-25T10:39:22.924Z,10.04
2022-12-25T10:42:28.449Z,9.69
2022-12-25T10:45:07.861Z,9.98
2022-12-25T10:47:42.452Z,9.82
2022-12-25T10:50:23.535Z,9.94
2022-12-25T10:53:02.296Z,9.98
2022-12-25T10:55:29.848Z,9.86
2022-12-25T10:57:57.954Z,9.95
2022-12-25T11:00:30.895Z,9.80
2022-12-25T11:02:58.136Z,9.74
2022-12-25T11:05:33.639Z,9.95
2022-12-25T11:08:02.341Z,10.10
2022-12-25T11:10:34.511Z,10.26
2022-12-25T11:13:02.533Z,9.73
2022-12-25T11:15:41.799Z,9.83
2022-12-25T11:18:24.284Z,10.21
2022-12-25T11:20:53.819Z,10.23
2022-12-25T11:23:22.776Z,10.24
2022-12-25T11:25:58.001Z,10.34
2022-12-25T11:28:26.082Z,10.34
2022-12-25T11:30:57.822Z,10.28
2022-12-25T11:33:31.075Z,9.85
2022-12-25T11:36:01.893Z,9.39
2022-12-25T11:38:28.560Z,9.09
2022-12-25T11:41:01.601Z,9.39
2022-12-25T11:43:36.561Z,9.37
2022-12-25T11:46:22.186Z,9.32
2022-12-25T11:49:00.837Z,9.50
2022-12-25T11:51:33.536Z,8.86
2022-12-25T11:54:08.949Z,8.40
2022-12-25T11:56:37.907Z,8.81
2022-12-25T11:59:18.125Z,9.25
2022-12-25T12:02:22.187Z,9.71
2022-12-25T12:04:54.204Z,9.61
2022-12-25T12:07:33.801Z,9.86
2022-12-25T12:10:17.925Z,10.25
2022-12-25T12:13:15.251Z,10.32
2022-12-25T12:15:44.913Z,10.24
2022-12-25T12:18:26.724Z,10.05
2022-12-25T12:21:21.980Z,9.46
2022-12-25T12:23:52.235Z,9.95
2022-12-25T12:26:24.879Z,9.81
2022-12-25T12:28:59.215Z,9.67
2022-12-25T12:31:37.771Z,9.89
2022-12-25T12:34:05.088Z,10.12
2022-12-25T12:36:38.817Z,10.21
2022-12-25T12:39:08.262Z,9.91
2022-12-25T12:41:48.254Z,9.97
2022-12-25T12:44:17.586Z,10.32
2022-12-25T12:46:56.192Z,9.88
2022-12-25T12:49:28.606Z,10.26
2022-12-25T12:52:22.635Z,10.27
2022-12-25T12:55:01.264Z,10.37
2022-12-25T12:57:32.741Z,10.34
2022-12-25T13:00:08.572Z,10.19
2022-12-25T13:02:56.638Z,10.59
2022-12-25T13:05:52.548Z,10.37
2022-12-25T13:08:33.622Z,10.48
2022-12-25T13:11:18.455Z,10.02
2022-12-25T13:13:46.793Z,10.00
2022-12-25T13:16:23.091Z,10.16
2022-12-25T13:18:52.643Z,10.22
2022-12-25T13:21:23.383Z,10.39
2022-12-25T13:23:57.383Z,10.16
2022-12-25T13:26:24.684Z,9.69
2022-12-25T13:28:51.523Z,9.84
2022-12-25T13:31:21.736Z,10.08
2022-12-25T13:34:06.866Z,10.20
2022-12-25T13:36:40.183Z,9.97
2022-12-25T13:39:16.774Z,10.15
2022-12-25T13:42:09.346Z,10.18
2022-12-25T13:44:43.609Z,10.28
2022-12-25T13:47:22.402Z,10.40
2022-12-25T13:49:50.597Z,10.36
2022-12-25T13:52:33.792Z,10.27
2022-12-25T13:55:15.780Z,10.14
2022-12-25T13:58:21.969Z,10.31
2022-12-25T14:00:54.490Z,10.27
2022-12-25T14:03:48.135Z,10.17
2022-12-25T14:06:26.947Z,10.01
2022-12-25T14:08:57.286Z,9.93
2022-12-25T14:11:38.583Z,9.68
2022-12-25T14:14:29.832Z,9.58
2022-12-25T14:17:14.983Z,9.55
2022-12-25T14:28:12.947Z,9.84
2022-12-25T14:30:50.373Z,9.88
2022-12-25T14:33:27.921Z,9.94
2022-12-25T14:36:11.924Z,9.75
2022-12-25T14:38:45.427Z,9.65
2022-12-25T14:41:47.173Z,9.39
2022-12-25T14:44:42.181Z,9.57
2022-12-25T14:47:20.557Z,9.58
2022-12-25T14:49:50.769Z,9.48
2022-12-25T14:52:45.816Z,9.62
2022-12-25T14:55:37.700Z,9.75
2022-12-25T15:03:05.390Z,9.83
2022-12-25T15:05:32.135Z,9.69
2022-12-25T15:08:21.575Z,9.48
2022-12-25T15:11:00.505Z,9.59
2022-12-25T15:13:32.522Z,9.57
2022-12-25T15:16:14.246Z,9.60
2022-12-25T15:18:45.762Z,9.59
2022-12-25T15:21:15.942Z,9.47
2022-12-25T15:23:47.473Z,9.40
2022-12-25T15:26:17.423Z,9.34
2022-12-25T15:28:49.923Z,9.41
2022-12-25T15:31:38.246Z,9.38
2022-12-25T15:34:22.300Z,9.33
2022-12-25T15:36:52.284Z,9.38
2022-12-25T15:39:21.077Z,9.08
2022-12-25T15:42:09.963Z,9.03
2022-12-25T15:44:48.927Z,9.13
2022-12-25T15:47:24.299Z,9.11
2022-12-25T15:50:03.313Z,9.24
2022-12-25T15:52:35.645Z,9.25
2022-12-25T15:55:06.053Z,9.18
2022-12-25T15:57:35.263Z,9.37
2022-12-25T16:00:07.248Z,9.22
2022-12-25T16:02:44.905Z,9.34
2022-12-25T16:05:17.252Z,9.36
2022-12-25T16:07:46.896Z,9.19
2022-12-25T16:10:17.710Z,9.30
2022-12-25T16:12:53.292Z,9.07
2022-12-25T16:15:22.981Z,9.20
2022-12-25T16:17:55.478Z,9.15
2022-12-25T16:23:24.874Z,9.22
2022-12-25T16:26:05.481Z,9.23
2022-12-25T16:33:40.296Z,9.49
2022-12-25T16:36:07.318Z,9.39
2022-12-25T16:38:34.405Z,9.26
2022-12-25T16:41:05.908Z,9.38
2022-12-25T16:43:38.528Z,9.32
2022-12-25T16:46:32.596Z,9.01
2022-12-25T16:53:24.991Z,8.96
2022-12-25T16:56:11.886Z,9.15
2022-12-25T16:58:56.727Z,9.24
2022-12-25T17:02:00.117Z,9.15
2022-12-25T17:04:36.890Z,9.26
2022-12-25T17:07:11.217Z,9.24
2022-12-25T17:09:44.142Z,9.24
2022-12-25T17:12:22.345Z,9.26
2022-12-25T17:14:52.766Z,9.23
2022-12-25T17:17:19.956Z,9.23
2022-12-25T17:19:50.035Z,9.39
2022-12-25T17:22:18.579Z,9.15
2022-12-25T17:25:41.572Z,9.25
2022-12-25T17:28:17.488Z,9.27
2022-12-25T17:30:44.434Z,9.23
2022-12-25T17:33:23.419Z,9.21
2022-12-25T17:36:04.108Z,8.97
2022-12-25T17:38:37.863Z,9.18
2022-12-25T17:41:12.789Z,9.02
2022-12-25T17:43:46.864Z,9.14
2022-12-25T17:46:20.821Z,9.09
2022-12-25T17:48:59.733Z,9.13
2022-12-25T17:51:33.759Z,9.20
2022-12-25T17:54:03.238Z,9.19
2022-12-25T17:56:30.875Z,9.15
2022-12-25T17:59:11.153Z,9.22
2022-12-25T18:01:43.244Z,8.85
2022-12-25T18:04:10.409Z,8.96
2022-12-25T18:06:40.804Z,9.00
2022-12-25T18:09:10.776Z,9.10
2022-12-25T18:11:43.563Z,9.22
2022-12-25T18:14:19.539Z,9.11
2022-12-25T18:16:53.788Z,9.19
2022-12-25T18:19:30.720Z,9.08
2022-12-25T18:21:59.479Z,9.01
2022-12-25T18:24:28.995Z,9.08
2022-12-25T18:27:00.647Z,9.25
2022-12-25T18:29:32.353Z,9.41
2022-12-25T18:34:43.227Z,9.36
2022-12-25T18:37:12.537Z,9.47
2022-12-25T18:39:43.088Z,9.50
2022-12-25T18:42:29.210Z,9.37
2022-12-25T18:44:58.499Z,9.19
2022-12-25T18:47:34.621Z,9.20
2022-12-25T18:50:10.498Z,9.13
2022-12-25T18:52:51.706Z,9.22
2022-12-25T18:55:22.239Z,9.29
2022-12-25T18:57:49.749Z,9.23
2022-12-25T19:00:22.417Z,9.21
2022-12-25T19:02:51.946Z,8.87
2022-12-25T19:05:36.069Z,9.23
2022-12-25T19:08:06.505Z,8.66
2022-12-25T19:10:35.984Z,8.79
2022-12-25T19:13:02.642Z,8.57
2022-12-25T19:15:36.958Z,8.34
2022-12-25T19:18:12.821Z,8.72
2022-12-25T19:20:47.982Z,8.92
2022-12-25T19:23:23.176Z,9.11
2022-12-25T19:25:53.480Z,8.83
2022-12-25T19:28:26.624Z,8.95
2022-12-25T19:31:31.645Z,8.99
2022-12-25T19:34:03.070Z,8.40
2022-12-25T19:36:32.547Z,8.33
2022-12-25T19:39:04.280Z,8.27
2022-12-25T19:41:36.644Z,8.30
2022-12-25T19:44:04.472Z,8.21
2022-12-25T19:46:36.868Z,8.58
2022-12-25T19:49:06.323Z,8.56
2022-12-25T19:51:43.556Z,8.34
2022-12-25T19:54:13.690Z,8.30
2022-12-25T19:56:41.777Z,8.22
2022-12-25T19:59:13.454Z,8.55
2022-12-25T20:01:41.137Z,8.66
2022-12-25T20:04:09.795Z,8.43
2022-12-25T20:06:43.051Z,8.82
2022-12-25T20:09:19.668Z,9.02
2022-12-25T20:11:56.519Z,8.96
2022-12-25T20:14:24.788Z,8.57
2022-12-25T20:16:51.674Z,8.79
2022-12-25T20:19:18.948Z,8.56
2022-12-25T20:21:49.112Z,8.92
2022-12-25T20:24:18.379Z,9.08
2022-12-25T20:26:58.820Z,9.14
2022-12-25T20:29:31.789Z,9.16
2022-12-25T20:32:06.649Z,9.06
2022-12-25T20:34:33.643Z,9.05
2022-12-25T20:37:00.602Z,9.09
2022-12-25T20:39:32.223Z,9.09
2022-12-25T20:42:08.267Z,9.21
2022-12-25T20:44:36.581Z,9.28
2022-12-25T20:47:07.802Z,9.18
2022-12-25T20:49:47.292Z,9.21
2022-12-25T20:52:15.934Z,9.28
2022-12-25T20:54:49.176Z,9.32
2022-12-25T20:57:19.179Z,9.02
2022-12-25T20:59:52.383Z,8.90
2022-12-25T21:02:36.409Z,8.99
2022-12-25T21:10:30.367Z,8.61
2022-12-25T21:21:54.866Z,8.50
2022-12-25T21:41:44.996Z,8.73
2022-12-25T21:44:11.897Z,8.89
2022-12-25T21:46:47.921Z,8.92
2022-12-25T21:49:40.222Z,8.73
2022-12-25T21:52:19.417Z,8.43
2022-12-25T21:54:55.406Z,8.74
2022-12-25T21:57:24.906Z,8.84
2022-12-25T21:59:55.799Z,8.87
2022-12-25T22:02:23.842Z,8.83
2022-12-25T22:04:50.537Z,8.74
2022-12-25T22:07:17.502Z,8.77
2022-12-25T22:09:53.135Z,8.82
2022-12-25T22:12:41.712Z,8.36
2022-12-25T22:15:20.275Z,7.94
2022-12-25T22:18:06.044Z,8.40
2022-12-25T22:20:42.812Z,8.59
2022-12-25T22:23:14.627Z,8.57
2022-12-25T22:25:45.589Z,8.49
2022-12-25T22:28:20.979Z,7.94
2022-12-25T22:30:55.445Z,8.16
2022-12-25T22:33:23.675Z,8.37
2022-12-25T22:36:02.636Z,8.30
2022-12-25T22:38:32.361Z,8.29
2022-12-25T22:41:09.268Z,8.33
2022-12-25T22:44:15.102Z,8.21
2022-12-25T22:46:31.034Z,8.36
2022-12-25T22:49:00.991Z,8.28
2022-12-25T22:51:32.079Z,8.24
2022-12-25T22:54:05.394Z,8.41
2022-12-25T22:56:33.796Z,8.31
2022-12-25T22:59:11.676Z,8.36
